Time;durP1;ratioP1;P1;durP2;ratioP2;P2;SDS_P1;SDS_P2;PMS_P1;PMS_P2;Temp;Humidity;BMP_temperature;BMP_pressure;BME280_temperature;BME280_humidity;BME280_pressure;Samples;Min_cycle;Max_cycle;Signal;HPM_P1;HPM_P2
2021/05/23 00:00:28;;;;;;;9.18;6.47;;;461.50;1971.20;;;;;;5056199;28;20044;-56
2021/05/23 00:02:57;;;;;;;9.02;6.60;;;461.50;1945.60;;;;;;5056224;28;20071;-55
2021/05/23 00:05:25;;;;;;;7.75;5.97;;;461.50;1971.20;;;;;;5056080;28;20056;-55
2021/05/23 00:08:06;;;;;;;9.10;6.20;;;461.50;1945.60;;;;;;5056046;28;20066;-58
2021/05/23 00:10:42;;;;;;;10.75;6.85;;;461.50;1971.20;;;;;;5038174;28;20033;-56
2021/05/23 00:13:11;;;;;;;11.13;6.82;;;461.50;1971.20;;;;;;5056206;28;20025;-55
2021/05/23 00:15:42;;;;;;;9.75;6.53;;;461.40;1971.20;;;;;;5038077;28;20385;-55
2021/05/23 00:18:09;;;;;;;9.70;6.65;;;461.40;1971.20;;;;;;5056170;28;20017;-56
2021/05/23 00:20:36;;;;;;;8.68;6.50;;;461.40;1971.20;;;;;;5055952;28;20029;-55
2021/05/23 00:23:04;;;;;;;9.27;6.25;;;461.40;1996.80;;;;;;5056131;28;20029;-55
2021/05/23 00:25:30;;;;;;;9.30;6.90;;;461.40;1971.20;;;;;;5055349;28;20489;-55
2021/05/23 00:27:56;;;;;;;8.65;6.72;;;461.40;1971.20;;;;;;5056834;28;20036;-56
2021/05/23 00:30:23;;;;;;;9.07;7.15;;;461.40;1971.20;;;;;;5055673;28;20029;-55
2021/05/23 00:32:50;;;;;;;9.55;6.78;;;461.40;1996.80;;;;;;5055566;28;20029;-55
2021/05/23 00:35:18;;;;;;;10.43;7.25;;;461.40;1996.80;;;;;;5055524;28;20370;-55
2021/05/23 00:37:43;;;;;;;10.55;6.97;;;461.30;1996.80;;;;;;5055499;28;20355;-56
2021/05/23 00:40:10;;;;;;;11.18;7.70;;;461.30;1996.80;;;;;;5055839;28;20033;-55
2021/05/23 00:42:37;;;;;;;9.40;7.07;;;461.40;1996.80;;;;;;5055460;28;20024;-56
2021/05/23 00:45:05;;;;;;;12.45;7.60;;;461.40;1996.80;;;;;;5055430;28;20044;-56
2021/05/23 00:47:31;;;;;;;11.45;7.72;;;461.40;1996.80;;;;;;5037429;28;20025;-55
2021/05/23 00:49:58;;;;;;;11.25;7.82;;;461.40;1971.20;;;;;;5055321;28;20025;-56
2021/05/23 00:52:24;;;;;;;9.70;7.10;;;461.40;1971.20;;;;;;5055307;28;20036;-55
2021/05/23 00:54:50;;;;;;;9.63;6.70;;;461.40;1971.20;;;;;;5055112;28;20111;-57
2021/05/23 00:57:17;;;;;;;9.68;7.28;;;461.30;1996.80;;;;;;5055187;28;20032;-56
2021/05/23 00:59:43;;;;;;;9.52;7.22;;;461.20;1996.80;;;;;;5055004;28;20381;-55
2021/05/23 01:02:41;;;;;;;11.48;7.82;;;461.30;1996.80;;;;;;5055356;28;20024;-55
2021/05/23 01:05:08;;;;;;;11.82;7.70;;;461.30;2022.40;;;;;;4974188;28;20043;-56
2021/05/23 01:07:34;;;;;;;11.80;7.32;;;461.20;2022.40;;;;;;4974206;28;20093;-55
2021/05/23 01:10:09;;;;;;;8.70;7.03;;;461.20;2022.40;;;;;;4974247;28;20117;-56
2021/05/23 01:12:53;;;;;;;10.45;6.72;;;461.20;1996.80;;;;;;4974151;28;20024;-56
2021/05/23 01:15:33;;;;;;;11.50;7.35;;;461.20;1996.80;;;;;;4974463;28;20105;-55
2021/05/23 01:18:04;;;;;;;10.63;6.97;;;461.20;1996.80;;;;;;4974101;28;20061;-55
2021/05/23 01:20:34;;;;;;;7.72;6.72;;;461.20;2022.40;;;;;;4973922;28;20038;-55
2021/05/23 01:23:03;;;;;;;8.38;6.50;;;461.20;1996.80;;;;;;4973856;28;20196;-55
2021/05/23 01:25:30;;;;;;;14.25;6.97;;;461.20;1996.80;;;;;;4973827;28;20133;-55
2021/05/23 01:27:57;;;;;;;12.35;6.85;;;461.20;1996.80;;;;;;4974005;28;20479;-55
2021/05/23 01:30:31;;;;;;;10.32;6.93;;;461.10;1996.80;;;;;;4973813;28;20031;-55
2021/05/23 01:33:01;;;;;;;11.20;6.10;;;461.10;2022.40;;;;;;4973927;28;20030;-56
2021/05/23 01:35:35;;;;;;;13.00;7.03;;;461.10;2022.40;;;;;;4973197;28;20352;-56
2021/05/23 01:38:02;;;;;;;12.25;6.53;;;461.10;2022.40;;;;;;4957275;28;20607;-56
2021/05/23 01:40:31;;;;;;;13.55;7.03;;;461.10;2022.40;;;;;;5007244;28;20033;-63
2021/05/23 01:42:57;;;;;;;9.52;6.78;;;461.10;1996.80;;;;;;5054355;28;20021;-55
2021/05/23 01:45:23;;;;;;;8.60;6.30;;;461.10;2022.40;;;;;;5054178;28;20433;-55
2021/05/23 01:47:49;;;;;;;9.05;6.80;;;461.10;2022.40;;;;;;5054182;28;20025;-55
2021/05/23 01:50:16;;;;;;;11.70;6.20;;;461.10;2022.40;;;;;;5054147;28;20381;-56
2021/05/23 01:52:53;;;;;;;9.93;6.05;;;461.20;1996.80;;;;;;5054187;28;20105;-55
2021/05/23 01:55:20;;;;;;;8.70;5.82;;;461.20;2022.40;;;;;;5054141;28;20057;-55
2021/05/23 01:57:46;;;;;;;8.25;6.18;;;461.20;1996.80;;;;;;5054580;28;20469;-55
2021/05/23 02:00:15;;;;;;;8.88;6.32;;;461.10;1996.80;;;;;;5053974;28;20021;-60
2021/05/23 02:02:41;;;;;;;7.93;6.00;;;461.10;2022.40;;;;;;5054132;28;20108;-56
2021/05/23 02:05:08;;;;;;;7.57;6.50;;;461.20;2022.40;;;;;;5053802;28;20037;-56
2021/05/23 02:07:34;;;;;;;9.45;6.80;;;461.10;2048.00;;;;;;5035975;28;20028;-56
2021/05/23 02:10:06;;;;;;;9.38;6.10;;;461.10;2022.40;;;;;;5053833;28;20021;-66
2021/05/23 02:12:33;;;;;;;8.32;6.57;;;461.10;2048.00;;;;;;5053752;28;20136;-56
2021/05/23 02:15:00;;;;;;;10.27;6.07;;;461.10;2048.00;;;;;;5053687;28;20110;-56
2021/05/23 02:17:26;;;;;;;7.72;6.30;;;461.10;2022.40;;;;;;5053728;28;20412;-56
2021/05/23 02:19:52;;;;;;;7.80;5.80;;;461.00;2048.00;;;;;;5053669;28;20025;-55
2021/05/23 02:22:18;;;;;;;10.38;5.88;;;461.00;2022.40;;;;;;5053693;28;20059;-55
2021/05/23 02:24:44;;;;;;;9.93;6.28;;;461.10;2022.40;;;;;;5053631;28;20025;-55
2021/05/23 02:27:11;;;;;;;9.50;6.25;;;461.00;2022.40;;;;;;5053541;28;20044;-55
2021/05/23 02:29:37;;;;;;;9.93;6.53;;;461.00;2048.00;;;;;;5054080;28;20143;-55
2021/05/23 02:32:07;;;;;;;12.43;6.63;;;461.00;2048.00;;;;;;5035607;28;20029;-55
2021/05/23 02:34:43;;;;;;;12.50;6.57;;;461.00;2048.00;;;;;;5053424;28;20021;-56
2021/05/23 02:37:09;;;;;;;8.95;6.25;;;460.90;2048.00;;;;;;5053420;28;20492;-56
2021/05/23 02:39:35;;;;;;;8.88;6.55;;;461.00;2048.00;;;;;;5053207;28;20056;-55
2021/05/23 02:42:01;;;;;;;8.38;6.32;;;461.00;2048.00;;;;;;5053623;28;20025;-55
2021/05/23 02:44:27;;;;;;;11.60;6.55;;;461.00;2073.60;;;;;;5053204;28;20025;-56
2021/05/23 02:46:52;;;;;;;7.75;6.88;;;460.90;2048.00;;;;;;5053297;28;20029;-56
2021/05/23 02:49:19;;;;;;;10.63;6.90;;;460.90;2048.00;;;;;;5053738;28;20025;-55
2021/05/23 02:51:45;;;;;;;10.60;7.47;;;460.90;2073.60;;;;;;5053467;28;20081;-55
2021/05/23 02:54:11;;;;;;;11.75;7.15;;;460.90;2099.20;;;;;;5053236;28;20028;-55
2021/05/23 02:56:37;;;;;;;12.30;7.43;;;460.90;2073.60;;;;;;5053147;28;20033;-55
2021/05/23 02:59:03;;;;;;;12.13;7.60;;;460.90;2073.60;;;;;;5035297;28;20028;-65
2021/05/23 03:01:29;;;;;;;9.70;7.30;;;460.80;2099.20;;;;;;5053086;28;20108;-56
2021/05/23 03:03:55;;;;;;;12.05;7.18;;;460.80;2099.20;;;;;;5053392;28;20107;-56
2021/05/23 03:06:20;;;;;;;14.48;7.85;;;460.90;2099.20;;;;;;5053136;28;20037;-55
2021/05/23 03:08:46;;;;;;;10.93;7.72;;;460.90;2099.20;;;;;;5053041;28;20112;-55
2021/05/23 03:11:13;;;;;;;10.88;7.47;;;460.90;2099.20;;;;;;5053046;28;20064;-55
2021/05/23 03:13:38;;;;;;;12.98;7.22;;;460.90;2099.20;;;;;;5053230;28;20037;-55
2021/05/23 03:16:05;;;;;;;10.85;7.10;;;460.90;2073.60;;;;;;5053109;28;20032;-56
2021/05/23 03:18:31;;;;;;;10.32;7.82;;;460.90;2073.60;;;;;;5053287;28;20021;-55
2021/05/23 03:20:57;;;;;;;9.38;7.57;;;460.90;2099.20;;;;;;5052958;28;20358;-55
2021/05/23 03:23:23;;;;;;;9.70;7.25;;;460.90;2073.60;;;;;;5053191;28;20029;-55
2021/05/23 03:25:49;;;;;;;10.32;7.43;;;460.80;2073.60;;;;;;5052932;28;20076;-55
2021/05/23 03:28:15;;;;;;;11.13;8.50;;;460.80;2099.20;;;;;;5052857;28;20021;-55
2021/05/23 03:30:42;;;;;;;12.65;8.07;;;436.10;2073.60;;;;;;5052812;28;20047;-55
2021/05/23 03:33:09;;;;;;;9.48;7.00;;;436.10;2048.00;;;;;;5052854;28;20025;-55
2021/05/23 03:35:35;;;;;;;11.48;7.97;;;460.80;2073.60;;;;;;5052815;28;20103;-56
2021/05/23 03:38:02;;;;;;;12.65;7.97;;;460.80;2073.60;;;;;;5052586;28;20049;-57
2021/05/23 03:40:30;;;;;;;13.77;8.45;;;436.10;2073.60;;;;;;5053498;28;20429;-56
2021/05/23 03:42:56;;;;;;;11.75;8.02;;;436.00;2073.60;;;;;;5053266;28;20392;-56
2021/05/23 03:45:23;;;;;;;12.90;8.13;;;436.10;2048.00;;;;;;5052654;28;20037;-55
2021/05/23 03:47:50;;;;;;;12.40;8.43;;;436.10;2073.60;;;;;;5052712;28;20025;-55
2021/05/23 03:50:19;;;;;;;12.13;8.50;;;436.00;2073.60;;;;;;5034849;28;20025;-55
2021/05/23 03:52:47;;;;;;;12.88;8.20;;;436.10;2073.60;;;;;;5052603;28;20021;-55
2021/05/23 03:55:13;;;;;;;13.57;8.20;;;436.10;2073.60;;;;;;5052835;28;20485;-55
2021/05/23 03:57:39;;;;;;;11.85;8.15;;;436.10;2099.20;;;;;;5052558;28;20025;-55
2021/05/23 04:00:07;;;;;;;12.10;7.63;;;436.10;2099.20;;;;;;5055369;28;20021;-55
2021/05/23 04:02:33;;;;;;;11.18;7.75;;;436.00;2099.20;;;;;;5056282;28;20059;-63
2021/05/23 04:04:59;;;;;;;11.52;8.77;;;436.10;2099.20;;;;;;5056044;28;20041;-63
2021/05/23 04:07:27;;;;;;;11.68;8.82;;;436.10;2099.20;;;;;;5056159;28;20021;-55
2021/05/23 04:09:54;;;;;;;11.95;8.38;;;436.10;2073.60;;;;;;5038198;28;20031;-55
2021/05/23 04:12:28;;;;;;;15.40;8.77;;;436.10;2099.20;;;;;;5055941;28;20029;-57
2021/05/23 04:14:54;;;;;;;10.43;8.40;;;460.80;2099.20;;;;;;5056290;28;20048;-55
2021/05/23 04:17:20;;;;;;;14.70;9.20;;;460.80;2099.20;;;;;;5056025;28;20439;-55
2021/05/23 04:19:46;;;;;;;10.05;8.45;;;460.90;2099.20;;;;;;5055927;28;20031;-56
2021/05/23 04:22:14;;;;;;;11.85;9.13;;;460.90;2099.20;;;;;;5056079;28;20079;-55
2021/05/23 04:24:41;;;;;;;10.88;8.02;;;460.90;2073.60;;;;;;5055775;28;20040;-55
2021/05/23 04:27:08;;;;;;;9.63;7.82;;;460.80;2073.60;;;;;;5055761;28;20068;-55
2021/05/23 04:29:35;;;;;;;9.10;7.43;;;460.90;2073.60;;;;;;5056013;28;20369;-56
2021/05/23 04:32:02;;;;;;;10.27;7.78;;;460.90;2073.60;;;;;;5055679;28;20461;-55
2021/05/23 04:34:28;;;;;;;12.05;7.85;;;460.90;2073.60;;;;;;5055883;28;20086;-55
2021/05/23 04:36:54;;;;;;;11.73;6.28;;;461.00;2073.60;;;;;;5055881;28;20067;-55
2021/05/23 04:39:20;;;;;;;11.60;6.25;;;461.00;2073.60;;;;;;5055421;28;20103;-56
2021/05/23 04:41:46;;;;;;;11.95;7.22;;;461.00;2048.00;;;;;;5055732;28;20075;-56
2021/05/23 04:44:12;;;;;;;9.45;5.65;;;461.00;2048.00;;;;;;5055387;28;20025;-56
2021/05/23 04:46:38;;;;;;;8.93;6.40;;;461.00;2022.40;;;;;;5055412;28;20040;-56
2021/05/23 04:49:04;;;;;;;9.48;6.15;;;461.10;2022.40;;;;;;5055436;28;20072;-56
2021/05/23 04:51:30;;;;;;;9.75;6.53;;;461.10;2022.40;;;;;;5055334;28;20044;-56
2021/05/23 04:53:56;;;;;;;9.02;6.55;;;461.10;2048.00;;;;;;5055285;28;20480;-57
2021/05/23 04:56:22;;;;;;;11.38;5.47;;;461.20;2022.40;;;;;;5055258;28;20021;-55
2021/05/23 04:58:48;;;;;;;8.25;5.00;;;461.20;2022.40;;;;;;5055224;28;20025;-56
2021/05/23 05:01:14;;;;;;;5.60;4.50;;;461.20;1996.80;;;;;;5055433;28;20023;-56
2021/05/23 05:03:40;;;;;;;6.80;4.55;;;461.20;1996.80;;;;;;5055050;28;20025;-55
2021/05/23 05:06:06;;;;;;;7.72;4.57;;;461.20;1996.80;;;;;;5054956;28;20033;-55
2021/05/23 05:08:32;;;;;;;7.05;4.80;;;461.20;1996.80;;;;;;5054997;28;20095;-64
2021/05/23 05:10:57;;;;;;;7.40;4.47;;;461.20;1996.80;;;;;;5054221;28;20025;-55
2021/05/23 05:13:23;;;;;;;9.93;4.47;;;461.20;2022.40;;;;;;5054873;28;20095;-55
2021/05/23 05:15:49;;;;;;;5.63;4.15;;;461.30;1996.80;;;;;;5054880;28;20024;-57
2021/05/23 05:18:18;;;;;;;6.28;4.15;;;461.40;1971.20;;;;;;5055083;28;20025;-55
2021/05/23 05:20:44;;;;;;;9.55;4.03;;;461.40;1971.20;;;;;;5054778;28;20028;-55
2021/05/23 05:23:10;;;;;;;9.68;4.38;;;461.50;1945.60;;;;;;5054900;28;20045;-55
2021/05/23 05:25:36;;;;;;;9.00;4.72;;;461.50;1945.60;;;;;;5054838;28;20065;-55
2021/05/23 05:28:03;;;;;;;8.90;4.82;;;461.50;1971.20;;;;;;5054703;28;20067;-55
2021/05/23 05:30:29;;;;;;;7.20;4.32;;;461.50;1971.20;;;;;;5054516;28;20021;-56
2021/05/23 05:32:55;;;;;;;6.43;4.00;;;461.60;1971.20;;;;;;5054619;28;20045;-57
2021/05/23 05:35:21;;;;;;;5.72;4.00;;;461.60;1945.60;;;;;;5036560;28;20017;-55
2021/05/23 05:37:47;;;;;;;9.10;3.95;;;461.60;1945.60;;;;;;5054461;28;20491;-56
2021/05/23 05:40:14;;;;;;;5.07;4.15;;;461.60;1945.60;;;;;;5054661;28;20048;-56
2021/05/23 05:42:39;;;;;;;8.63;3.50;;;461.60;1945.60;;;;;;5054600;28;20108;-64
2021/05/23 05:45:06;;;;;;;8.20;3.92;;;461.60;1894.40;;;;;;5054376;28;20107;-61
2021/05/23 05:47:32;;;;;;;5.72;3.33;;;486.40;1920.00;;;;;;5054525;28;20020;-60
2021/05/23 05:49:58;;;;;;;7.18;4.00;;;486.40;1920.00;;;;;;5054305;28;20546;-64
2021/05/23 05:52:24;;;;;;;8.48;3.78;;;486.40;1894.40;;;;;;5054161;28;20388;-58
2021/05/23 05:54:49;;;;;;;4.57;3.40;;;486.40;1894.40;;;;;;5054153;28;20025;-62
2021/05/23 05:57:15;;;;;;;6.05;3.10;;;486.50;1920.00;;;;;;5054103;28;20025;-57
2021/05/23 05:59:41;;;;;;;4.85;3.15;;;486.50;1894.40;;;;;;5054050;28;20021;-64
2021/05/23 06:02:07;;;;;;;4.50;2.85;;;486.60;1843.20;;;;;;5036251;28;20427;-58
2021/05/23 06:04:33;;;;;;;7.28;2.83;;;486.60;1792.00;;;;;;5054088;28;20438;-62
2021/05/23 06:06:59;;;;;;;6.20;2.92;;;486.70;1817.60;;;;;;5053722;28;20440;-62
2021/05/23 06:09:25;;;;;;;6.65;2.63;;;486.60;1792.00;;;;;;5053676;28;20021;-64
2021/05/23 06:11:51;;;;;;;4.05;2.53;;;486.80;1740.80;;;;;;5053653;28;20028;-63
2021/05/23 06:14:17;;;;;;;4.88;2.53;;;486.80;1740.80;;;;;;5035869;28;20018;-62
2021/05/23 06:16:43;;;;;;;9.65;2.45;;;486.80;1766.40;;;;;;5035843;28;20112;-61
2021/05/23 06:19:09;;;;;;;8.30;3.40;;;486.90;1740.80;;;;;;5053609;28;20358;-63
2021/05/23 06:21:35;;;;;;;7.40;3.03;;;487.00;1740.80;;;;;;5053607;28;20032;-64
2021/05/23 06:24:01;;;;;;;6.50;3.15;;;487.10;1740.80;;;;;;5053535;28;20029;-60
2021/05/23 06:26:28;;;;;;;5.88;2.75;;;487.10;1740.80;;;;;;5053505;28;20043;-65
2021/05/23 06:28:54;;;;;;;9.15;2.67;;;487.20;1766.40;;;;;;5053505;28;20032;-59
2021/05/23 06:31:21;;;;;;;7.47;2.80;;;512.00;1715.20;;;;;;5052186;28;20025;-64
2021/05/23 06:33:47;;;;;;;4.68;2.58;;;512.10;1715.20;;;;;;5050121;28;20021;-63
2021/05/23 06:36:13;;;;;;;4.93;2.10;;;512.20;1715.20;;;;;;5048884;28;20127;-65
2021/05/23 06:38:39;;;;;;;7.45;2.80;;;512.40;1612.80;;;;;;5050009;28;20033;-64
2021/05/23 06:41:05;;;;;;;5.78;2.65;;;512.60;1612.80;;;;;;5050803;28;20048;-64
2021/05/23 06:43:31;;;;;;;6.30;2.67;;;512.70;1612.80;;;;;;5051197;28;20100;-66
2021/05/23 06:45:57;;;;;;;7.90;2.55;;;512.80;1587.20;;;;;;5051447;28;20127;-62
2021/05/23 06:48:23;;;;;;;4.53;1.98;;;512.90;1561.60;;;;;;5053237;28;20080;-65
2021/05/23 06:50:50;;;;;;;4.70;2.17;;;537.60;1561.60;;;;;;5052427;28;20025;-63
2021/05/23 06:53:16;;;;;;;6.13;2.50;;;537.70;1612.80;;;;;;5052658;28;20025;-63
2021/05/23 06:55:43;;;;;;;6.07;2.60;;;537.70;1612.80;;;;;;5053199;28;20366;-57
2021/05/23 06:58:08;;;;;;;6.57;2.20;;;537.90;1612.80;;;;;;5053030;28;20021;-65
2021/05/23 07:00:34;;;;;;;3.67;2.40;;;538.00;1587.20;;;;;;5053175;28;20021;-60
2021/05/23 07:03:00;;;;;;;7.07;2.50;;;538.20;1561.60;;;;;;5053186;28;20025;-66
2021/05/23 07:05:27;;;;;;;5.53;2.53;;;;;;;;;;5053341;28;20033;-65
2021/05/23 07:07:53;;;;;;;6.93;2.60;;;563.20;1587.20;;;;;;5053025;28;20028;-62
2021/05/23 07:10:19;;;;;;;6.93;2.53;;;538.30;1587.20;;;;;;5053082;28;20029;-64
2021/05/23 07:12:45;;;;;;;5.82;2.00;;;538.40;1612.80;;;;;;5053309;28;20087;-65
2021/05/23 07:15:11;;;;;;;4.90;2.60;;;538.40;1587.20;;;;;;5053123;28;20477;-65
2021/05/23 07:17:37;;;;;;;4.97;2.55;;;538.50;1536.00;;;;;;5053024;28;20040;-69
2021/05/23 07:20:04;;;;;;;6.57;2.85;;;563.20;1561.60;;;;;;5053319;28;20025;-65
2021/05/23 07:22:30;;;;;;;8.90;3.30;;;563.20;1638.40;;;;;;5052925;28;20021;-65
2021/05/23 07:24:56;;;;;;;4.32;3.00;;;563.30;1587.20;;;;;;5052913;28;20440;-64
2021/05/23 07:27:22;;;;;;;5.32;3.22;;;563.40;1612.80;;;;;;5052932;28;20104;-63
2021/05/23 07:29:48;;;;;;;6.38;2.90;;;563.40;1638.40;;;;;;5052968;28;20052;-63
2021/05/23 07:32:14;;;;;;;12.15;4.05;;;563.50;1638.40;;;;;;5052925;28;20048;-64
2021/05/23 07:34:40;;;;;;;8.23;3.92;;;563.50;1587.20;;;;;;5055407;28;20103;-67
2021/05/23 07:37:06;;;;;;;6.38;3.17;;;563.60;1587.20;;;;;;5056347;28;20438;-63
2021/05/23 07:39:31;;;;;;;7.60;3.20;;;563.60;1587.20;;;;;;5055565;28;20037;-63
2021/05/23 07:41:57;;;;;;;12.60;2.80;;;563.60;1638.40;;;;;;5055961;28;20025;-63
2021/05/23 07:44:23;;;;;;;7.63;3.00;;;563.60;1612.80;;;;;;5055616;28;20469;-65
2021/05/23 07:46:49;;;;;;;4.13;2.20;;;563.70;1587.20;;;;;;5038344;28;20115;-64
2021/05/23 07:49:18;;;;;;;5.22;2.47;;;563.70;1587.20;;;;;;5055832;28;20025;-62
2021/05/23 07:51:45;;;;;;;27.90;3.55;;;563.70;1587.20;;;;;;5055454;28;20021;-59
2021/05/23 07:54:11;;;;;;;11.88;2.67;;;563.80;1587.20;;;;;;5055478;28;20477;-65
2021/05/23 07:56:37;;;;;;;3.85;1.55;;;563.80;1536.00;;;;;;5055086;28;20059;-67
2021/05/23 07:59:03;;;;;;;6.72;1.70;;;563.80;1536.00;;;;;;5037928;28;20072;-65
2021/05/23 08:01:29;;;;;;;4.65;1.88;;;563.90;1459.20;;;;;;5055546;28;20033;-61
2021/05/23 08:03:55;;;;;;;3.22;1.60;;;564.10;1484.80;;;;;;5055399;28;20070;-63
2021/05/23 08:06:21;;;;;;;4.18;1.40;;;564.00;1510.40;;;;;;5054951;28;20032;-65
2021/05/23 08:08:47;;;;;;;4.70;1.42;;;564.00;1484.80;;;;;;5055841;28;20488;-65
2021/05/23 08:11:13;;;;;;;4.03;1.38;;;564.00;1433.60;;;;;;5055614;28;20025;-63
2021/05/23 08:13:38;;;;;;;8.77;2.20;;;564.10;1408.00;;;;;;5055520;28;20461;-59
2021/05/23 08:16:07;;;;;;;5.78;1.67;;;;;;;;;;5054527;28;20033;-61
2021/05/23 08:18:33;;;;;;;6.15;1.60;;;589.00;1433.60;;;;;;5050087;28;20028;-62
2021/05/23 08:21:00;;;;;;;8.05;1.60;;;588.90;1484.80;;;;;;5054579;28;20112;-61
2021/05/23 08:23:28;;;;;;;19.83;2.45;;;588.80;1459.20;;;;;;5054426;28;20016;-62
2021/05/23 08:25:55;;;;;;;5.75;1.40;;;588.90;1484.80;;;;;;5054298;28;20029;-64
2021/05/23 08:28:21;;;;;;;8.27;1.58;;;588.90;1459.20;;;;;;5054682;28;20450;-63
2021/05/23 08:30:47;;;;;;;4.93;1.40;;;588.90;1408.00;;;;;;5055177;28;20543;-61
2021/05/23 08:33:13;;;;;;;8.57;1.98;;;588.90;1408.00;;;;;;5055688;28;20021;-59
2021/05/23 08:35:40;;;;;;;4.22;1.20;;;588.90;1408.00;;;;;;5055230;28;20127;-65
2021/05/23 08:38:06;;;;;;;11.40;1.95;;;588.90;1408.00;;;;;;5055192;28;20028;-59
2021/05/23 08:40:33;;;;;;;7.38;1.80;;;588.90;1408.00;;;;;;5054779;28;20029;-65
2021/05/23 08:43:01;;;;;;;10.77;2.70;;;589.00;1408.00;;;;;;5054766;28;20021;-62
2021/05/23 08:45:27;;;;;;;9.77;2.40;;;589.10;1382.40;;;;;;5026774;28;20126;-63
2021/05/23 08:47:52;;;;;;;8.80;1.42;;;589.10;1408.00;;;;;;5053186;28;20029;-63
2021/05/23 08:50:21;;;;;;;10.00;1.75;;;589.10;1382.40;;;;;;5053304;28;20638;-59
2021/05/23 08:52:54;;;;;;;11.18;2.08;;;589.10;1382.40;;;;;;5053332;28;20056;-60
2021/05/23 08:55:20;;;;;;;12.48;2.20;;;589.20;1382.40;;;;;;5053391;28;20044;-67
2021/05/23 08:57:50;;;;;;;3.85;1.63;;;589.30;1433.60;;;;;;5053485;28;20036;-64
2021/05/23 09:00:17;;;;;;;6.47;1.52;;;589.30;1356.80;;;;;;5053409;28;20032;-60
2021/05/23 09:02:57;;;;;;;3.58;1.50;;;589.30;1356.80;;;;;;5053577;28;20028;-67
2021/05/23 09:05:34;;;;;;;3.90;1.23;;;589.30;1331.20;;;;;;5053256;28;20040;-63
2021/05/23 09:08:02;;;;;;;2.67;1.10;;;589.30;1305.60;;;;;;5050676;28;20029;-59
2021/05/23 09:10:31;;;;;;;9.48;1.80;;;589.30;1331.20;;;;;;5052789;28;20013;-64
2021/05/23 09:12:57;;;;;;;5.95;1.23;;;589.40;1280.00;;;;;;5053237;28;20122;-59
2021/05/23 09:15:24;;;;;;;6.38;1.33;;;589.40;1331.20;;;;;;5052875;28;20025;-65
2021/05/23 09:18:14;;;;;;;4.65;1.38;;;589.40;1305.60;;;;;;5053148;28;20481;-60
2021/05/23 09:20:42;;;;;;;4.32;1.35;;;589.40;1331.20;;;;;;5052959;28;20082;-66
2021/05/23 09:23:22;;;;;;;3.35;1.30;;;589.50;1331.20;;;;;;5053443;28;20096;-61
2021/05/23 09:25:49;;;;;;;4.53;1.35;;;589.50;1280.00;;;;;;5043544;28;20045;-68
2021/05/23 09:28:16;;;;;;;2.40;1.10;;;589.50;1280.00;;;;;;5053259;28;20033;-63
2021/05/23 09:30:45;;;;;;;6.50;1.85;;;589.50;1305.60;;;;;;5053174;28;20049;-65
2021/05/23 09:33:19;;;;;;;5.05;1.58;;;589.50;1280.00;;;;;;5052389;28;20025;-63
2021/05/23 09:35:45;;;;;;;5.43;1.40;;;589.50;1305.60;;;;;;5051349;28;20083;-65
2021/05/23 09:38:14;;;;;;;5.05;1.40;;;589.70;1331.20;;;;;;5052912;28;20429;-65
2021/05/23 09:40:43;;;;;;;10.35;1.50;;;589.60;1305.60;;;;;;5053031;28;20478;-65
2021/05/23 09:43:16;;;;;;;4.28;1.38;;;589.70;1228.80;;;;;;5052149;28;20102;-67
2021/05/23 09:45:48;;;;;;;2.65;1.20;;;589.70;1228.80;;;;;;5053772;28;20037;-68
2021/05/23 09:48:22;;;;;;;4.82;1.45;;;589.70;1152.00;;;;;;5052861;28;20039;-62
2021/05/23 09:50:53;;;;;;;4.30;1.30;;;589.70;1177.60;;;;;;5052684;28;20029;-65
2021/05/23 09:53:33;;;;;;;3.72;1.10;;;589.70;1203.20;;;;;;5052854;28;20021;-63
2021/05/23 09:56:08;;;;;;;3.80;1.58;;;614.40;1254.40;;;;;;5052047;28;20033;-62
2021/05/23 09:58:41;;;;;;;3.92;1.52;;;614.40;1228.80;;;;;;5052201;28;20021;-63
2021/05/23 10:01:09;;;;;;;1.63;1.10;;;614.40;1177.60;;;;;;5052715;28;20083;-64
2021/05/23 10:03:40;;;;;;;3.22;1.45;;;614.40;1177.60;;;;;;5052698;28;20075;-65
2021/05/23 10:06:08;;;;;;;7.40;1.52;;;614.40;1152.00;;;;;;5052406;28;20040;-64
2021/05/23 10:08:34;;;;;;;2.53;1.30;;;614.40;1100.80;;;;;;5052420;28;20562;-62
2021/05/23 10:11:00;;;;;;;7.28;1.55;;;614.50;1126.40;;;;;;5052105;28;20594;-63
2021/05/23 10:13:27;;;;;;;13.38;1.55;;;614.40;1177.60;;;;;;5052783;28;20079;-65
2021/05/23 10:15:54;;;;;;;3.28;1.38;;;;;;;;;;5052149;28;20630;-67
2021/05/23 10:18:24;;;;;;;5.53;1.40;;;614.60;1152.00;;;;;;5052588;28;20112;-63
2021/05/23 10:20:55;;;;;;;4.20;1.98;;;614.60;1126.40;;;;;;5052039;28;20033;-66
2021/05/23 10:23:28;;;;;;;31.02;3.50;;;614.60;1152.00;;;;;;5052412;28;20096;-62
2021/05/23 10:25:58;;;;;;;6.83;1.83;;;614.60;1177.60;;;;;;5034558;28;20417;-66
2021/05/23 10:28:25;;;;;;;7.75;2.45;;;614.70;1177.60;;;;;;5052289;28;20273;-62
2021/05/23 10:30:56;;;;;;;5.93;1.30;;;614.70;1177.60;;;;;;5052065;28;20085;-63
2021/05/23 10:33:23;;;;;;;7.53;1.75;;;614.70;1152.00;;;;;;5051874;28;20381;-64
2021/05/23 10:35:53;;;;;;;10.40;1.77;;;614.80;1152.00;;;;;;5034728;28;20021;-68
2021/05/23 10:38:21;;;;;;;11.07;1.92;;;614.80;1152.00;;;;;;5051800;28;20033;-61
2021/05/23 10:41:02;;;;;;;9.68;3.00;;;614.70;1177.60;;;;;;5052091;28;20420;-64
2021/05/23 10:43:33;;;;;;;6.40;2.17;;;614.70;1203.20;;;;;;5052260;28;20048;-62
2021/05/23 10:46:14;;;;;;;3.53;1.50;;;614.80;1152.00;;;;;;5051510;28;20037;-62
2021/05/23 10:48:56;;;;;;;6.20;1.45;;;614.80;1177.60;;;;;;5052706;28;20025;-66
2021/05/23 10:51:23;;;;;;;6.78;1.40;;;614.90;1126.40;;;;;;5053340;28;20501;-66
2021/05/23 10:53:49;;;;;;;13.32;2.17;;;614.90;1177.60;;;;;;5052879;28;20037;-69
2021/05/23 10:56:23;;;;;;;7.32;1.70;;;615.00;1152.00;;;;;;5049439;28;20025;-65
2021/05/23 10:59:02;;;;;;;9.45;1.73;;;615.00;1126.40;;;;;;5050372;28;20028;-66
2021/05/23 11:01:52;;;;;;;5.80;1.70;;;615.10;1126.40;;;;;;5053473;28;20056;-68
2021/05/23 11:04:22;;;;;;;3.03;1.30;;;615.00;1075.20;;;;;;5051376;28;20430;-65
2021/05/23 11:06:49;;;;;;;8.20;1.55;;;615.10;1126.40;;;;;;5052866;28;20029;-60
2021/05/23 11:09:25;;;;;;;21.85;2.60;;;615.10;1100.80;;;;;;5054730;28;20017;-62
2021/05/23 11:11:51;;;;;;;10.18;2.25;;;615.10;1100.80;;;;;;5057449;28;20036;-62
2021/05/23 11:14:23;;;;;;;8.75;1.92;;;615.10;1126.40;;;;;;5039457;28;20381;-63
2021/05/23 11:16:54;;;;;;;4.78;1.80;;;615.10;1126.40;;;;;;5039504;28;20031;-65
2021/05/23 11:19:22;;;;;;;9.15;2.20;;;615.20;1075.20;;;;;;5057263;28;20021;-62
2021/05/23 11:21:50;;;;;;;9.85;2.35;;;615.30;1075.20;;;;;;5057229;28;20021;-61
2021/05/23 11:24:16;;;;;;;8.90;1.67;;;615.20;1075.20;;;;;;5047787;28;20025;-61
2021/05/23 11:26:43;;;;;;;5.30;1.80;;;615.10;1126.40;;;;;;5055083;28;20033;-67
2021/05/23 11:29:10;;;;;;;5.00;2.40;;;615.20;1075.20;;;;;;5037929;28;20048;-62
2021/05/23 11:31:45;;;;;;;6.63;2.28;;;615.20;1100.80;;;;;;5055096;28;20162;-64
2021/05/23 11:34:13;;;;;;;3.72;1.75;;;615.10;1126.40;;;;;;5055566;28;20114;-61
2021/05/23 11:36:39;;;;;;;9.70;2.75;;;615.10;1024.00;;;;;;5055449;28;20062;-61
2021/05/23 11:39:08;;;;;;;8.25;2.22;;;615.10;1100.80;;;;;;5055340;28;20072;-62
2021/05/23 11:41:39;;;;;;;8.85;2.20;;;615.20;1126.40;;;;;;5055025;28;20023;-64
2021/05/23 11:44:08;;;;;;;3.95;1.85;;;615.20;1100.80;;;;;;5055678;28;20396;-65
2021/05/23 11:46:35;;;;;;;12.05;2.25;;;615.20;1075.20;;;;;;5055044;28;20059;-60
2021/05/23 11:49:01;;;;;;;12.18;2.33;;;615.30;1024.00;;;;;;5055043;28;20029;-66
2021/05/23 11:51:29;;;;;;;10.48;2.00;;;640.10;1049.60;;;;;;5055339;28;20040;-63
2021/05/23 11:53:57;;;;;;;3.92;1.35;;;640.20;1049.60;;;;;;5055305;28;20599;-66
2021/05/23 11:56:28;;;;;;;4.53;1.52;;;640.20;1024.00;;;;;;5055263;28;20033;-60
2021/05/23 11:59:03;;;;;;;7.70;1.58;;;640.30;1024.00;;;;;;5054822;28;20033;-63
2021/05/23 12:01:33;;;;;;;3.72;1.45;;;640.30;1024.00;;;;;;5055154;28;20021;-61
2021/05/23 12:04:08;;;;;;;11.68;1.80;;;640.50;1075.20;;;;;;5054876;28;20032;-63
2021/05/23 12:06:39;;;;;;;5.22;2.10;;;640.50;1024.00;;;;;;5037313;28;20091;-62
2021/05/23 12:09:21;;;;;;;5.78;2.10;;;640.50;1049.60;;;;;;5054537;28;20059;-61
2021/05/23 12:11:55;;;;;;;6.07;1.70;;;640.60;1075.20;;;;;;5055172;28;20469;-63
2021/05/23 12:14:32;;;;;;;7.25;2.70;;;640.60;1075.20;;;;;;5054542;28;20052;-61
2021/05/23 12:17:05;;;;;;;4.65;1.88;;;640.60;1024.00;;;;;;5055036;28;20382;-59
2021/05/23 12:19:47;;;;;;;10.27;2.15;;;640.70;1024.00;;;;;;5054046;28;20487;-62